createdAt,value
2019-04-03T00:01:34.358Z,11.09
2019-04-03T00:03:36.312Z,11.19
2019-04-03T00:05:37.741Z,11.04
2019-04-03T00:07:39.098Z,10.94
2019-04-03T00:09:40.534Z,10.88
2019-04-03T00:11:41.934Z,10.74
2019-04-03T00:13:43.346Z,11.02
2019-04-03T00:15:45.286Z,10.98
2019-04-03T00:17:46.805Z,10.88
2019-04-03T00:19:48.287Z,11.05
2019-04-03T00:21:50.650Z,10.95
2019-04-03T00:23:53.069Z,10.98
2019-04-03T00:25:54.520Z,10.84
2019-04-03T00:27:55.867Z,10.82
2019-04-03T00:29:57.272Z,10.80
2019-04-03T00:31:58.632Z,10.70
2019-04-03T00:34:00.038Z,10.70
2019-04-03T00:36:01.391Z,10.68
2019-04-03T00:38:02.893Z,10.78
2019-04-03T00:40:05.657Z,10.63
2019-04-03T00:42:07.041Z,10.62
2019-04-03T00:44:08.431Z,10.57
2019-04-03T00:46:09.830Z,10.57
2019-04-03T00:48:11.346Z,10.74
2019-04-03T00:50:12.927Z,10.76
2019-04-03T00:52:14.300Z,10.84
2019-04-03T00:54:15.796Z,10.88
2019-04-03T00:56:17.178Z,10.84
2019-04-03T00:58:34.746Z,10.74
2019-04-03T01:00:36.131Z,10.52
2019-04-03T01:02:37.515Z,10.46
2019-04-03T01:04:38.928Z,10.58
2019-04-03T01:06:40.306Z,10.54
2019-04-03T01:08:41.730Z,10.61
2019-04-03T01:10:43.176Z,10.75
2019-04-03T01:12:44.530Z,10.68
2019-04-03T01:14:45.943Z,10.83
2019-04-03T01:16:47.298Z,10.88
2019-04-03T01:18:48.660Z,10.67
2019-04-03T01:20:50.056Z,10.66
2019-04-03T01:22:51.420Z,10.67
2019-04-03T01:24:52.909Z,10.68
2019-04-03T01:26:54.468Z,10.76
2019-04-03T01:28:56.053Z,10.68
2019-04-03T01:30:57.451Z,10.62
2019-04-03T01:32:58.878Z,10.61
2019-04-03T01:35:00.325Z,10.51
2019-04-03T01:37:01.697Z,10.33
2019-04-03T01:39:05.392Z,10.19
2019-04-03T01:41:06.741Z,10.18
2019-04-03T01:43:08.086Z,10.06
2019-04-03T01:45:09.504Z,10.03
2019-04-03T01:47:10.954Z,10.13
2019-04-03T01:49:12.354Z,10.23
2019-04-03T01:51:13.739Z,9.96
2019-04-03T01:53:15.120Z,9.93
2019-04-03T01:55:16.640Z,9.95
2019-04-03T01:57:18.264Z,10.02
2019-04-03T01:59:19.690Z,10.10
2019-04-03T02:01:21.130Z,10.32
2019-04-03T02:03:22.534Z,10.33
2019-04-03T02:05:24.012Z,10.35
2019-04-03T02:07:25.394Z,10.44
2019-04-03T02:09:26.790Z,10.46
2019-04-03T02:11:28.297Z,10.60
2019-04-03T02:13:29.757Z,10.42
2019-04-03T02:15:31.122Z,10.35
2019-04-03T02:17:32.518Z,10.39
2019-04-03T02:19:33.923Z,10.37
2019-04-03T02:21:35.322Z,10.38
2019-04-03T02:23:36.887Z,10.37
2019-04-03T02:25:38.266Z,10.27
2019-04-03T02:27:39.650Z,10.37
2019-04-03T02:29:41.145Z,10.33
2019-04-03T02:31:42.942Z,10.33
2019-04-03T02:33:44.464Z,10.37
2019-04-03T02:35:45.843Z,10.22
2019-04-03T02:37:49.645Z,10.17
2019-04-03T02:39:50.475Z,10.04
2019-04-03T02:41:51.924Z,10.05
2019-04-03T02:43:53.294Z,10.03
2019-04-03T02:45:56.368Z,10.01
2019-04-03T02:47:57.939Z,9.93
2019-04-03T02:49:59.264Z,9.85
2019-04-03T02:52:00.609Z,9.73
2019-04-03T02:54:03.189Z,9.62
2019-04-03T02:56:04.691Z,9.58
2019-04-03T02:58:06.170Z,9.68
2019-04-03T03:00:08.330Z,9.73
2019-04-03T03:02:12.489Z,9.83
2019-04-03T03:04:13.416Z,9.79
2019-04-03T03:06:15.057Z,9.72
2019-04-03T03:08:16.755Z,9.62
2019-04-03T03:10:19.337Z,9.62
2019-04-03T03:12:22.139Z,9.60
2019-04-03T03:14:24.046Z,9.41
2019-04-03T03:16:26.112Z,9.35
2019-04-03T03:18:28.550Z,9.33
2019-04-03T03:20:31.047Z,9.41
2019-04-03T03:22:33.378Z,9.49
2019-04-03T03:24:35.250Z,9.54
2019-04-03T03:26:37.810Z,9.60
2019-04-03T03:28:40.515Z,9.29
2019-04-03T03:30:54.157Z,9.21
2019-04-03T03:32:46.012Z,9.19
2019-04-03T03:34:57.321Z,9.05
2019-04-03T03:36:58.680Z,8.98
2019-04-03T03:38:57.017Z,9.05
2019-04-03T03:40:58.372Z,9.10
2019-04-03T03:43:03.749Z,9.12
2019-04-03T03:45:04.608Z,9.27
2019-04-03T03:47:06.470Z,9.54
2019-04-03T03:49:08.226Z,9.19
2019-04-03T03:51:11.294Z,9.02
2019-04-03T03:53:13.318Z,8.94
2019-04-03T03:55:15.081Z,8.89
2019-04-03T03:57:16.860Z,8.81
2019-04-03T03:59:19.035Z,8.85
2019-04-03T04:01:20.908Z,8.84
2019-04-03T04:03:22.483Z,8.75
2019-04-03T04:05:23.927Z,8.76
2019-04-03T04:07:25.974Z,8.58
2019-04-03T04:09:27.731Z,8.71
2019-04-03T04:11:30.830Z,8.72
2019-04-03T04:13:33.495Z,8.76
2019-04-03T04:15:35.495Z,8.93
2019-04-03T04:17:36.961Z,9.10
2019-04-03T04:19:38.380Z,9.15
2019-04-03T04:21:42.953Z,9.14
2019-04-03T04:23:43.381Z,9.17
2019-04-03T04:25:44.968Z,9.10
2019-04-03T04:27:47.344Z,9.04
2019-04-03T04:29:48.928Z,9.03
2019-04-03T04:31:50.360Z,8.99
2019-04-03T04:33:51.881Z,8.94
2019-04-03T04:35:53.343Z,8.86
2019-04-03T04:37:55.969Z,8.82
2019-04-03T04:39:59.684Z,8.88
2019-04-03T04:42:04.547Z,9.14
2019-04-03T04:44:05.651Z,8.99
2019-04-03T04:46:09.167Z,8.87
2019-04-03T04:48:10.251Z,8.84
2019-04-03T04:50:19.387Z,8.81
2019-04-03T04:52:21.213Z,8.90
2019-04-03T04:54:22.767Z,8.95
2019-04-03T04:56:24.215Z,9.01
2019-04-03T04:58:25.606Z,9.08
2019-04-03T05:00:29.383Z,9.07
2019-04-03T05:02:30.278Z,9.25
2019-04-03T05:04:31.627Z,9.46
2019-04-03T05:06:33.184Z,9.21
2019-04-03T05:08:34.536Z,9.11
2019-04-03T05:10:36.898Z,9.22
2019-04-03T05:12:42.277Z,9.18
2019-04-03T05:14:42.574Z,9.23
2019-04-03T05:16:43.925Z,9.29
2019-04-03T05:18:45.513Z,9.44
2019-04-03T05:20:46.864Z,9.29
2019-04-03T05:22:48.214Z,9.31
2019-04-03T05:24:49.687Z,9.31
2019-04-03T05:26:51.701Z,9.34
2019-04-03T05:28:57.310Z,9.64
2019-04-03T05:30:56.578Z,9.69
2019-04-03T05:32:59.085Z,9.48
2019-04-03T05:35:00.448Z,9.58
2019-04-03T05:37:01.806Z,9.67
2019-04-03T05:39:06.384Z,9.58
2019-04-03T05:41:07.733Z,9.73
2019-04-03T05:43:09.491Z,9.69
2019-04-03T05:45:11.129Z,9.69
2019-04-03T05:47:12.709Z,9.75
2019-04-03T05:49:14.309Z,9.88
2019-04-03T05:51:15.929Z,10.03
2019-04-03T05:53:17.321Z,10.23
2019-04-03T05:55:18.838Z,10.19
2019-04-03T05:57:20.462Z,10.05
2019-04-03T05:59:21.839Z,10.18
2019-04-03T06:01:23.367Z,10.37
2019-04-03T06:03:38.518Z,10.22
2019-04-03T06:05:28.036Z,10.22
2019-04-03T06:07:29.419Z,10.29
2019-04-03T06:09:30.957Z,10.54
2019-04-03T06:11:32.610Z,10.67
2019-04-03T06:13:34.365Z,10.82
2019-04-03T06:15:35.743Z,10.77
2019-04-03T06:17:37.121Z,10.84
2019-04-03T06:19:39.773Z,10.76
2019-04-03T06:21:41.406Z,10.81
2019-04-03T06:23:42.950Z,11.04
2019-04-03T06:25:44.343Z,11.14
2019-04-03T06:27:46.428Z,11.26
2019-04-03T06:29:48.654Z,11.36
2019-04-03T06:31:51.534Z,11.26
2019-04-03T06:33:52.881Z,11.31
2019-04-03T06:35:54.277Z,11.46
2019-04-03T06:37:55.851Z,11.42
2019-04-03T06:39:57.267Z,11.48
2019-04-03T06:41:58.880Z,11.65
2019-04-03T06:44:00.305Z,11.77
2019-04-03T06:46:01.654Z,11.95
2019-04-03T06:48:05.106Z,11.94
2019-04-03T06:50:06.587Z,12.08
2019-04-03T06:52:07.976Z,11.98
2019-04-03T06:54:09.353Z,11.92
2019-04-03T06:56:10.700Z,12.04
2019-04-03T06:58:12.402Z,12.22
2019-04-03T07:00:14.458Z,12.43
2019-04-03T07:02:15.803Z,12.24
2019-04-03T07:04:17.146Z,12.24
2019-04-03T07:06:18.573Z,12.37
2019-04-03T07:08:30.125Z,12.47
2019-04-03T07:10:25.631Z,12.74
2019-04-03T07:12:26.592Z,12.72
2019-04-03T07:14:28.068Z,12.94
2019-04-03T07:16:29.506Z,13.08
2019-04-03T07:18:31.297Z,13.31
2019-04-03T07:20:32.979Z,13.56
2019-04-03T07:22:34.459Z,13.51
2019-04-03T07:24:36.019Z,13.80
2019-04-03T07:26:37.355Z,13.83
2019-04-03T07:28:41.590Z,13.76
2019-04-03T07:30:42.590Z,14.21
2019-04-03T07:32:43.938Z,14.41
2019-04-03T07:34:45.482Z,14.36
2019-04-03T07:36:46.892Z,14.50
2019-04-03T07:38:48.222Z,14.59
2019-04-03T07:40:51.073Z,14.74
2019-04-03T07:42:55.359Z,15.10
2019-04-03T07:44:56.119Z,15.09
2019-04-03T07:46:57.490Z,15.21
2019-04-03T07:49:00.291Z,15.36
2019-04-03T07:51:02.308Z,15.76
2019-04-03T07:53:03.778Z,15.95
2019-04-03T07:55:05.921Z,15.98
2019-04-03T07:57:09.823Z,16.05
2019-04-03T07:59:10.771Z,16.10
2019-04-03T08:01:12.106Z,16.48
2019-04-03T08:03:13.477Z,16.69
2019-04-03T08:05:15.186Z,16.68
2019-04-03T08:07:16.652Z,16.75
2019-04-03T08:09:17.999Z,16.84
2019-04-03T08:11:19.353Z,16.76
2019-04-03T08:13:21.093Z,17.16
2019-04-03T08:15:22.688Z,17.45
2019-04-03T08:17:24.332Z,17.39
2019-04-03T08:19:25.771Z,17.72
2019-04-03T08:21:29.471Z,17.91
2019-04-03T08:23:30.437Z,17.76
2019-04-03T08:25:31.978Z,18.06
2019-04-03T08:27:33.682Z,17.61
2019-04-03T08:29:37.955Z,17.86
2019-04-03T08:31:38.937Z,18.25
2019-04-03T08:33:40.381Z,18.07
2019-04-03T08:35:41.883Z,18.29
2019-04-03T08:37:43.585Z,18.38
2019-04-03T08:39:45.184Z,18.51
2019-04-03T08:41:46.549Z,18.38
2019-04-03T08:43:48.336Z,18.67
2019-04-03T08:45:49.872Z,18.91
2019-04-03T08:47:51.254Z,18.70
2019-04-03T08:49:52.599Z,18.75
2019-04-03T08:51:53.973Z,18.90
2019-04-03T08:53:55.320Z,19.16
2019-04-03T08:55:56.763Z,19.51
2019-04-03T08:57:58.131Z,19.33
2019-04-03T09:00:00.287Z,19.40
2019-04-03T09:02:03.131Z,19.53
2019-04-03T09:04:04.672Z,19.52
2019-04-03T09:06:06.117Z,19.46
2019-04-03T09:08:07.676Z,19.76
2019-04-03T09:10:11.528Z,19.55
2019-04-03T09:12:12.927Z,19.49
2019-04-03T09:14:14.309Z,19.87
2019-04-03T09:16:16.056Z,20.02
2019-04-03T09:18:17.444Z,19.74
2019-04-03T09:20:18.885Z,20.02
2019-04-03T09:22:21.541Z,19.73
2019-04-03T09:24:23.917Z,19.75
2019-04-03T09:26:25.458Z,19.74
2019-04-03T09:28:27.329Z,19.93
2019-04-03T09:30:28.767Z,20.15
2019-04-03T09:32:30.112Z,20.18
2019-04-03T09:34:34.159Z,20.10
2019-04-03T09:36:35.467Z,20.14
2019-04-03T09:38:37.493Z,19.96
2019-04-03T09:40:38.972Z,19.81
2019-04-03T09:42:40.359Z,19.57
2019-04-03T09:44:41.802Z,19.98
2019-04-03T09:46:44.699Z,20.09
2019-04-03T09:48:46.424Z,20.28
2019-04-03T09:50:47.811Z,20.32
2019-04-03T09:52:50.495Z,20.43
2019-04-03T09:54:52.158Z,20.81
2019-04-03T09:57:03.282Z,19.90
2019-04-03T09:58:57.150Z,20.31
2019-04-03T10:00:58.581Z,20.32
2019-04-03T10:02:59.950Z,20.40
2019-04-03T10:05:02.046Z,20.42
2019-04-03T10:07:03.997Z,20.28
2019-04-03T10:09:06.533Z,20.22
2019-04-03T10:11:08.241Z,20.59
2019-04-03T10:13:11.121Z,20.85
2019-04-03T10:15:17.660Z,20.77
2019-04-03T10:17:18.122Z,20.84
2019-04-03T10:19:19.496Z,21.13
2019-04-03T10:21:21.419Z,21.15
2019-04-03T10:23:22.895Z,20.95
2019-04-03T10:25:24.275Z,21.15
2019-04-03T10:27:25.793Z,20.99
2019-04-03T10:29:27.444Z,20.95
2019-04-03T10:31:29.242Z,20.68
2019-04-03T10:33:32.371Z,20.17
2019-04-03T10:35:33.985Z,20.07
2019-04-03T10:37:35.563Z,20.37
2019-04-03T10:39:40.054Z,20.75
2019-04-03T10:41:40.548Z,20.74
2019-04-03T10:43:42.146Z,20.26
2019-04-03T10:45:43.852Z,20.73
2019-04-03T10:47:45.285Z,20.83
2019-04-03T10:49:46.626Z,20.67
2019-04-03T10:51:48.005Z,20.80
2019-04-03T10:53:51.465Z,20.83
2019-04-03T10:55:52.627Z,20.38
2019-04-03T10:57:54.003Z,20.55
2019-04-03T10:59:55.649Z,20.37
2019-04-03T11:01:57.134Z,20.73
2019-04-03T11:03:58.482Z,21.07
2019-04-03T11:05:59.858Z,21.08
2019-04-03T11:08:01.523Z,20.79
2019-04-03T11:10:08.160Z,20.33
2019-04-03T11:12:10.617Z,20.62
2019-04-03T11:14:12.413Z,20.93
2019-04-03T11:16:15.053Z,21.47
2019-04-03T11:18:17.101Z,21.31
2019-04-03T11:20:18.720Z,21.40
2019-04-03T11:22:20.268Z,21.66
2019-04-03T11:24:21.654Z,21.52
2019-04-03T11:26:24.519Z,21.07
2019-04-03T11:28:26.348Z,20.85
2019-04-03T11:30:27.720Z,20.95
2019-04-03T11:32:29.382Z,20.81
2019-04-03T11:34:31.032Z,21.66
2019-04-03T11:36:32.679Z,21.86
2019-04-03T11:38:34.081Z,21.63
2019-04-03T11:40:35.796Z,21.57
2019-04-03T11:42:37.410Z,21.52
2019-04-03T11:44:39.250Z,21.85
2019-04-03T11:46:40.726Z,21.17
2019-04-03T11:48:43.440Z,20.87
2019-04-03T11:50:45.351Z,20.39
2019-04-03T11:52:46.771Z,20.91
2019-04-03T11:54:48.218Z,20.33
2019-04-03T11:56:49.585Z,20.34
2019-04-03T11:58:52.037Z,20.34
2019-04-03T12:00:54.322Z,20.89
2019-04-03T12:02:55.706Z,21.13
2019-04-03T12:04:57.068Z,21.03
2019-04-03T12:06:58.644Z,20.89
2019-04-03T12:09:01.226Z,20.66
2019-04-03T12:11:05.437Z,20.87
2019-04-03T12:13:06.957Z,20.60
2019-04-03T12:15:09.924Z,19.83
2019-04-03T12:17:11.359Z,20.31
2019-04-03T12:19:12.716Z,19.96
2019-04-03T12:21:14.812Z,19.19
2019-04-03T12:23:17.375Z,19.22
2019-04-03T12:25:18.728Z,19.93
2019-04-03T12:27:20.080Z,19.68
2019-04-03T12:29:22.749Z,19.99
2019-04-03T12:31:24.674Z,20.46
2019-04-03T12:33:26.532Z,20.13
2019-04-03T12:35:28.053Z,20.06
2019-04-03T12:37:29.388Z,19.95
2019-04-03T12:39:30.841Z,19.90
2019-04-03T12:41:32.223Z,19.83
2019-04-03T12:43:33.843Z,19.36
2019-04-03T12:45:35.804Z,19.67
2019-04-03T12:47:37.222Z,19.69
2019-04-03T12:49:38.567Z,19.54
2019-04-03T12:51:39.950Z,19.65
2019-04-03T12:53:41.369Z,19.57
2019-04-03T12:55:43.018Z,19.84
2019-04-03T12:57:44.523Z,19.90
2019-04-03T12:59:47.622Z,19.93
2019-04-03T13:01:50.217Z,20.13
2019-04-03T13:03:52.161Z,19.98
2019-04-03T13:05:53.901Z,20.36
2019-04-03T13:07:55.726Z,20.57
2019-04-03T13:09:57.175Z,20.82
2019-04-03T13:11:58.519Z,21.05
2019-04-03T13:14:00.346Z,20.82
2019-04-03T13:16:01.753Z,20.91
2019-04-03T13:18:03.370Z,21.18
2019-04-03T13:20:06.540Z,21.42
2019-04-03T13:22:09.067Z,21.40
2019-04-03T13:24:12.509Z,21.61
2019-04-03T13:26:14.374Z,21.57
2019-04-03T13:28:15.891Z,21.40
2019-04-03T13:30:19.051Z,21.56
2019-04-03T13:32:22.196Z,21.79
2019-04-03T13:34:23.690Z,22.01
2019-04-03T13:36:25.218Z,21.93
2019-04-03T13:38:28.872Z,22.21
2019-04-03T13:40:30.012Z,22.36
2019-04-03T13:42:31.911Z,22.28
2019-04-03T13:44:34.021Z,22.51
2019-04-03T13:46:36.506Z,22.58
2019-04-03T13:48:38.782Z,22.12
2019-04-03T13:50:40.216Z,22.34
2019-04-03T13:52:47.528Z,22.77
2019-04-03T13:54:45.371Z,22.67
2019-04-03T13:56:47.106Z,23.20
2019-04-03T13:58:48.480Z,22.77
2019-04-03T14:00:58.653Z,23.16
2019-04-03T14:02:56.396Z,23.14
2019-04-03T14:04:57.537Z,23.08
2019-04-03T14:07:02.779Z,23.52
2019-04-03T14:09:05.471Z,23.37
2019-04-03T14:11:06.818Z,22.97
2019-04-03T14:13:10.764Z,23.14
2019-04-03T14:15:11.957Z,22.52
2019-04-03T14:17:14.375Z,22.35
2019-04-03T14:19:15.889Z,22.30
2019-04-03T14:21:17.458Z,22.07
2019-04-03T14:23:19.253Z,21.65
2019-04-03T14:25:23.252Z,21.69
2019-04-03T14:27:29.140Z,21.98
2019-04-03T14:29:29.185Z,22.09
2019-04-03T14:31:35.992Z,22.44
2019-04-03T14:33:42.945Z,21.91
2019-04-03T14:35:48.818Z,22.47
2019-04-03T14:37:40.899Z,22.76
2019-04-03T14:39:42.437Z,22.72
2019-04-03T14:41:44.077Z,22.67
2019-04-03T14:43:46.075Z,21.95
2019-04-03T14:45:47.611Z,22.10
2019-04-03T14:47:48.964Z,23.14
2019-04-03T14:49:50.324Z,23.57
2019-04-03T14:51:51.887Z,23.59
2019-04-03T14:53:53.559Z,23.70
2019-04-03T14:55:55.732Z,23.65
2019-04-03T14:57:57.527Z,23.71
2019-04-03T15:00:02.023Z,24.15
2019-04-03T15:02:02.553Z,24.53
2019-04-03T15:04:04.159Z,24.21
2019-04-03T15:06:05.862Z,24.37
2019-04-03T15:08:07.334Z,24.96
2019-04-03T15:10:09.560Z,23.93
2019-04-03T15:12:12.538Z,24.50
2019-04-03T15:14:14.648Z,24.17
2019-04-03T15:16:15.989Z,24.70
2019-04-03T15:18:17.483Z,24.18
2019-04-03T15:20:19.820Z,24.69
2019-04-03T15:22:21.316Z,25.10
2019-04-03T15:24:22.701Z,25.75
2019-04-03T15:26:24.077Z,25.97
2019-04-03T15:28:25.427Z,26.44
2019-04-03T15:30:27.056Z,26.09
2019-04-03T15:32:28.670Z,26.42
2019-04-03T15:34:30.041Z,25.74
2019-04-03T15:36:31.402Z,25.61
2019-04-03T15:38:32.837Z,25.45
2019-04-03T15:40:34.244Z,25.15
2019-04-03T15:42:38.459Z,26.18
2019-04-03T15:44:38.971Z,25.80
2019-04-03T15:46:40.474Z,26.18
2019-04-03T15:48:41.917Z,26.86
2019-04-03T15:50:43.378Z,27.78
2019-04-03T15:52:48.452Z,27.52
2019-04-03T15:54:48.002Z,27.26
2019-04-03T15:56:49.759Z,27.80
2019-04-03T15:58:52.033Z,27.58
2019-04-03T16:00:53.625Z,27.52
2019-04-03T16:02:55.016Z,27.96
2019-04-03T16:04:58.386Z,27.76
2019-04-03T16:07:01.394Z,28.28
2019-04-03T16:09:06.854Z,27.60
2019-04-03T16:11:08.282Z,27.76
2019-04-03T16:13:10.055Z,27.35
2019-04-03T16:15:12.058Z,26.83
2019-04-03T16:17:13.519Z,26.22
2019-04-03T16:19:15.184Z,26.88
2019-04-03T16:21:16.742Z,26.61
2019-04-03T16:23:18.245Z,25.49
2019-04-03T16:25:20.072Z,24.94
2019-04-03T16:27:22.148Z,24.81
2019-04-03T16:29:23.601Z,24.66
2019-04-03T16:31:24.999Z,24.31
2019-04-03T16:33:26.423Z,24.38
2019-04-03T16:35:27.906Z,23.30
2019-04-03T16:37:29.328Z,23.26
2019-04-03T16:39:32.445Z,23.07
2019-04-03T16:41:34.878Z,23.33
2019-04-03T16:43:37.682Z,22.96
2019-04-03T16:45:39.671Z,22.31
2019-04-03T16:47:44.118Z,21.99
2019-04-03T16:49:44.588Z,21.62
2019-04-03T16:51:46.003Z,22.08
2019-04-03T16:53:47.349Z,21.97
2019-04-03T16:55:48.732Z,21.96
2019-04-03T16:57:53.151Z,21.59
2019-04-03T16:59:53.327Z,21.65
2019-04-03T17:01:54.700Z,21.58
2019-04-03T17:03:56.051Z,21.29
2019-04-03T17:05:57.565Z,21.36
2019-04-03T17:07:58.978Z,20.95
2019-04-03T17:10:00.323Z,20.40
2019-04-03T17:12:01.674Z,20.53
2019-04-03T17:14:04.091Z,20.47
2019-04-03T17:16:06.983Z,20.40
2019-04-03T17:18:10.749Z,20.39
2019-04-03T17:20:12.326Z,20.21
2019-04-03T17:22:14.161Z,20.10
2019-04-03T17:24:17.381Z,19.81
2019-04-03T17:26:18.852Z,20.09
2019-04-03T17:28:21.031Z,20.06
2019-04-03T17:30:22.520Z,19.99
2019-04-03T17:32:24.347Z,20.02
2019-04-03T17:34:25.957Z,19.82
2019-04-03T17:36:27.297Z,19.71
2019-04-03T17:38:31.451Z,19.78
2019-04-03T17:40:31.925Z,19.22
2019-04-03T17:42:33.267Z,19.16
2019-04-03T17:44:34.622Z,19.26
2019-04-03T17:46:36.040Z,18.83
2019-04-03T17:48:37.382Z,18.67
2019-04-03T17:50:38.724Z,18.77
2019-04-03T17:52:40.159Z,18.68
2019-04-03T17:54:41.508Z,18.71
2019-04-03T17:56:43.090Z,18.67
2019-04-03T17:58:46.059Z,18.66
2019-04-03T18:00:51.662Z,18.61
2019-04-03T18:02:51.703Z,18.58
2019-04-03T18:04:53.140Z,18.49
2019-04-03T18:06:57.303Z,18.24
2019-04-03T18:08:57.787Z,18.32
2019-04-03T18:10:59.133Z,18.28
2019-04-03T18:13:00.512Z,18.26
2019-04-03T18:15:05.258Z,18.06
2019-04-03T18:17:06.596Z,17.91
2019-04-03T18:19:08.371Z,18.03
2019-04-03T18:21:09.765Z,17.80
2019-04-03T18:23:11.110Z,17.82
2019-04-03T18:25:12.963Z,17.80
2019-04-03T18:27:14.302Z,17.86
2019-04-03T18:29:15.637Z,17.98
2019-04-03T18:31:17.035Z,18.03
2019-04-03T18:33:18.374Z,17.87
2019-04-03T18:35:19.819Z,17.69
2019-04-03T18:37:21.240Z,17.50
2019-04-03T18:39:22.578Z,17.46
2019-04-03T18:41:23.924Z,17.15
2019-04-03T18:43:25.314Z,17.19
2019-04-03T18:45:26.655Z,17.25
2019-04-03T18:47:39.991Z,17.19
2019-04-03T18:49:32.370Z,17.14
2019-04-03T18:51:36.481Z,16.93
2019-04-03T18:53:38.883Z,16.98
2019-04-03T18:55:40.685Z,16.87
2019-04-03T18:57:42.019Z,16.69
2019-04-03T18:59:43.428Z,16.55
2019-04-03T19:01:44.867Z,16.67
2019-04-03T19:03:46.213Z,16.59
2019-04-03T19:05:47.637Z,16.42
2019-04-03T19:07:49.010Z,16.64
2019-04-03T19:09:51.809Z,16.62
2019-04-03T19:11:53.718Z,16.42
2019-04-03T19:13:55.072Z,16.46
2019-04-03T19:15:56.469Z,16.52
2019-04-03T19:18:00.514Z,16.39
2019-04-03T19:20:10.354Z,16.21
2019-04-03T19:22:04.733Z,16.30
2019-04-03T19:24:06.079Z,16.40
2019-04-03T19:26:07.433Z,16.16
2019-04-03T19:28:08.814Z,16.23
2019-04-03T19:30:11.062Z,16.15
2019-04-03T19:32:12.838Z,16.33
2019-04-03T19:34:19.508Z,16.18
2019-04-03T19:36:17.583Z,16.20
2019-04-03T19:38:19.040Z,15.97
2019-04-03T19:40:20.394Z,16.04
2019-04-03T19:42:21.875Z,16.01
2019-04-03T19:44:23.237Z,15.93
2019-04-03T19:46:24.577Z,15.83
2019-04-03T19:48:26.251Z,15.73
2019-04-03T19:50:27.836Z,15.64
2019-04-03T19:52:29.161Z,15.66
2019-04-03T19:54:30.507Z,15.70
2019-04-03T19:56:31.884Z,15.58
2019-04-03T19:58:33.318Z,15.52
2019-04-03T20:00:34.966Z,15.59
2019-04-03T20:02:38.207Z,15.56
2019-04-03T20:04:39.949Z,15.67
2019-04-03T20:06:41.324Z,15.61
2019-04-03T20:08:42.659Z,15.57
2019-04-03T20:10:44.044Z,15.66
2019-04-03T20:12:45.483Z,15.80
2019-04-03T20:14:57.563Z,15.60
2019-04-03T20:16:50.077Z,15.47
2019-04-03T20:18:51.455Z,15.15
2019-04-03T20:20:52.794Z,15.12
2019-04-03T20:22:54.129Z,15.02
2019-04-03T20:25:00.125Z,15.00
2019-04-03T20:26:58.860Z,14.93
2019-04-03T20:29:02.121Z,14.93
2019-04-03T20:31:03.821Z,14.94
2019-04-03T20:33:06.762Z,14.97
2019-04-03T20:35:08.199Z,15.02
2019-04-03T20:37:09.581Z,14.90
2019-04-03T20:39:10.936Z,14.72
2019-04-03T20:41:12.268Z,14.76
2019-04-03T20:43:13.638Z,14.74
2019-04-03T20:45:14.989Z,14.78
2019-04-03T20:47:16.383Z,14.62
2019-04-03T20:49:17.727Z,14.61
2019-04-03T20:51:19.102Z,14.69
2019-04-03T20:53:20.469Z,14.81
2019-04-03T20:55:24.775Z,14.90
2019-04-03T20:57:25.054Z,14.95
2019-04-03T20:59:26.463Z,14.70
2019-04-03T21:01:27.844Z,14.63
2019-04-03T21:03:29.273Z,14.77
2019-04-03T21:05:30.616Z,14.71
2019-04-03T21:07:31.992Z,14.69
2019-04-03T21:09:33.733Z,14.61
2019-04-03T21:11:35.107Z,14.62
2019-04-03T21:13:39.524Z,14.66
2019-04-03T21:15:39.728Z,14.64
2019-04-03T21:17:41.176Z,14.73
2019-04-03T21:19:42.555Z,14.62
2019-04-03T21:21:43.928Z,14.66
2019-04-03T21:23:45.275Z,14.59
2019-04-03T21:25:46.656Z,14.59
2019-04-03T21:27:48.000Z,14.50
2019-04-03T21:29:49.598Z,14.57
2019-04-03T21:31:51.625Z,14.41
2019-04-03T21:33:53.172Z,14.46
2019-04-03T21:35:54.528Z,14.37
2019-04-03T21:37:55.899Z,14.27
2019-04-03T21:39:57.263Z,14.22
2019-04-03T21:41:58.676Z,14.29
2019-04-03T21:44:00.529Z,14.36
2019-04-03T21:46:02.012Z,14.32
2019-04-03T21:48:03.398Z,14.22
2019-04-03T21:50:05.855Z,14.29
2019-04-03T21:52:07.226Z,14.35
2019-04-03T21:54:08.569Z,14.31
2019-04-03T21:56:09.968Z,14.26
2019-04-03T21:58:11.323Z,14.26
2019-04-03T22:00:15.301Z,14.22
2019-04-03T22:02:16.741Z,14.18
2019-04-03T22:04:18.083Z,14.15
2019-04-03T22:06:19.653Z,14.05
2019-04-03T22:08:21.127Z,14.01
2019-04-03T22:10:22.468Z,14.09
2019-04-03T22:12:23.811Z,14.06
2019-04-03T22:14:25.396Z,14.09
2019-04-03T22:16:26.761Z,14.04
2019-04-03T22:18:28.104Z,14.08
2019-04-03T22:20:30.066Z,14.06
2019-04-03T22:22:31.942Z,14.03
2019-04-03T22:24:37.523Z,14.04
2019-04-03T22:26:38.821Z,14.03
2019-04-03T22:28:41.242Z,13.96
2019-04-03T22:30:42.586Z,13.97
2019-04-03T22:32:43.965Z,13.99
2019-04-03T22:34:45.322Z,13.91
2019-04-03T22:36:46.667Z,13.85
2019-04-03T22:38:48.048Z,13.89
2019-04-03T22:40:49.485Z,13.91
2019-04-03T22:42:50.873Z,13.90
2019-04-03T22:44:52.261Z,13.66
2019-04-03T22:46:54.164Z,13.77
2019-04-03T22:48:56.090Z,13.70
2019-04-03T22:50:57.453Z,13.77
2019-04-03T22:52:58.902Z,13.75
2019-04-03T22:55:00.247Z,13.70
2019-04-03T22:57:01.604Z,13.70
2019-04-03T22:59:03.005Z,13.78
2019-04-03T23:01:04.338Z,13.64
2019-04-03T23:03:05.742Z,13.75
2019-04-03T23:05:07.279Z,13.63
2019-04-03T23:07:08.616Z,13.61
2019-04-03T23:09:10.019Z,13.62
2019-04-03T23:11:11.364Z,13.59
2019-04-03T23:13:12.714Z,13.64
2019-04-03T23:15:14.074Z,13.45
2019-04-03T23:17:15.412Z,13.32
2019-04-03T23:19:17.900Z,13.25
2019-04-03T23:21:19.921Z,13.25
2019-04-03T23:23:21.279Z,13.17
2019-04-03T23:25:22.674Z,13.16
2019-04-03T23:27:24.029Z,13.22
2019-04-03T23:29:25.408Z,13.16
2019-04-03T23:31:26.756Z,13.19
2019-04-03T23:33:28.096Z,13.05
2019-04-03T23:35:29.488Z,13.00
2019-04-03T23:37:30.857Z,13.08
2019-04-03T23:39:32.180Z,13.19
2019-04-03T23:41:36.326Z,13.09
2019-04-03T23:43:39.278Z,12.95
2019-04-03T23:45:40.144Z,12.95
2019-04-03T23:47:41.524Z,12.96
2019-04-03T23:49:42.903Z,12.80
2019-04-03T23:51:44.250Z,12.82
2019-04-03T23:53:45.589Z,12.88
2019-04-03T23:55:47.010Z,12.81
2019-04-03T23:57:48.388Z,12.80
2019-04-03T23:59:49.803Z,12.71
